Prag, Češka

01:52 PM CET on Veljača 22, 2017 (GMT +0100)
Jenec | | Change Station

Elev 1211 ft 50.09 °N, 14.21 °E | Updated 1 minute ago

Mostly Cloudy
Pretežno oblačno
52.3 °F
Feels Like 52.3 °F
S
11.4
Vjetar Varijabla smjera vjetra Vjetar from JJZ
Gusts 15.9 mph

Danas
High -- | Low -- °F
--% Chance of Precip.
Jučer
High -- | Low -- °F
Precip. -- u
Pritisak 29.68 u
Vidljivost 6.2 milja
Oblaci Pretežno oblačno 2900 ft
Pretežno oblačno 4000 ft
Točka rose 40 °F
Vlažnost 64%
Kiša 0.00 u
Visina snijega Not available.
7:00 AM 5:33 PM
Mlađak, 17% visible
SPECI LKPR 221233Z 25026G37KT 9999 BKN029 BKN040 11/05 Q1005 RMK REG QNH 1002
Pritisak 29.68 u
Vidljivost 6.2 milja
Oblaci Pretežno oblačno 2900 ft
Pretežno oblačno 4000 ft
Točka rose 40 °F
Vlažnost 64%
Kiša 0.00 u
Visina snijega Not available.
7:00 AM 5:33 PM
Mlađak, 17% visible
SPECI LKPR 221233Z 25026G37KT 9999 BKN029 BKN040 11/05 Q1005 RMK REG QNH 1002

Get Your Daily Forecast Email!

Thanks for signing up!

Be on the lookout for a verification email in your inbox.

You'll start receiving the daily forecast at 8 AM.

×

10-Day Weather Forecast

×

Almanac

Astronomija

Feb. 22, 2017 Izlazak Zalazak
Trenutno vrijeme
Civilni sumrak
Nautički sumrak
Astronomski sumrak
Moon
Duljina trajanja vidljive svjetlosti
Duljina dana
Tomorrow will be .
, % of the Moon is Illuminated

Današnji ekstremi

Country Highs Country Lows

Community

WunderPhotos

Upload Photos

1,962,540 photos uploaded!

WunderBlog® & News

Nearby

Kvalitet zraka

  Kvalitet zraka AQ Index Zagadjenje
Not available.

Visina snijega

Station Depth Visina

Earthquake Activity

Grad Distance Mag. Time & Date
Minimum magnitude displayed is 2.5.

Coastal Water Temperatures

Mjesto Temperatura

Stations

Nearby Weather Stations

Lokacija stanice Temp. Subjektivni osjećaj Točka rose Vlažnost Vjetar Precip. Elev Ažurirano Tip